createdAt,value
2022-10-18T00:02:11.634Z,3.53
2022-10-18T00:04:59.981Z,3.47
2022-10-18T00:07:48.318Z,3.23
2022-10-18T00:10:36.648Z,4.00
2022-10-18T00:13:25.207Z,4.00
2022-10-18T00:16:16.115Z,3.90
2022-10-18T00:19:05.759Z,4.20
2022-10-18T00:21:54.067Z,3.80
2022-10-18T00:24:42.460Z,3.90
2022-10-18T00:27:30.893Z,3.97
2022-10-18T00:30:19.458Z,3.47
2022-10-18T00:33:07.829Z,3.67
2022-10-18T00:35:57.482Z,3.80
2022-10-18T00:38:46.066Z,3.97
2022-10-18T00:41:35.847Z,3.73
2022-10-18T00:45:23.621Z,4.00
2022-10-18T00:48:12.515Z,4.10
2022-10-18T00:51:02.657Z,3.57
2022-10-18T00:53:51.053Z,3.80
2022-10-18T00:56:39.883Z,4.03
2022-10-18T00:59:28.324Z,4.03
2022-10-18T01:02:18.219Z,3.67
2022-10-18T01:05:08.376Z,3.40
2022-10-18T01:08:27.239Z,3.30
2022-10-18T01:11:34.731Z,3.50
2022-10-18T01:14:44.191Z,3.50
2022-10-18T01:17:36.472Z,3.23
2022-10-18T01:20:51.132Z,3.47
2022-10-18T01:24:06.127Z,3.87
2022-10-18T01:27:26.726Z,3.37
2022-10-18T01:30:51.520Z,3.20
2022-10-18T01:33:42.236Z,3.00
2022-10-18T01:36:33.189Z,3.87
2022-10-18T01:39:25.448Z,3.83
2022-10-18T01:42:15.482Z,3.70
2022-10-18T01:45:03.885Z,3.60
2022-10-18T01:47:53.573Z,3.13
2022-10-18T01:50:41.923Z,3.90
2022-10-18T01:53:32.904Z,3.83
2022-10-18T01:56:33.740Z,3.47
2022-10-18T01:59:37.417Z,3.53
2022-10-18T02:02:38.810Z,4.20
2022-10-18T02:05:30.424Z,3.47
2022-10-18T02:08:25.244Z,3.20
2022-10-18T02:11:15.027Z,3.60
2022-10-18T02:14:06.990Z,3.37
2022-10-18T02:16:56.056Z,4.03
2022-10-18T02:19:46.001Z,3.43
2022-10-18T02:22:35.699Z,3.53
2022-10-18T02:25:25.790Z,3.03
2022-10-18T02:28:15.843Z,2.90
2022-10-18T02:31:08.192Z,2.77
2022-10-18T02:33:58.737Z,2.57
2022-10-18T02:36:48.748Z,2.83
2022-10-18T02:39:40.655Z,3.40
2022-10-18T02:42:35.438Z,3.77
2022-10-18T02:45:23.764Z,3.30
2022-10-18T02:48:12.224Z,3.10
2022-10-18T02:51:00.675Z,3.30
2022-10-18T02:53:49.007Z,2.77
2022-10-18T02:56:38.736Z,2.83
2022-10-18T02:59:27.195Z,3.20
2022-10-18T03:02:15.597Z,3.10
2022-10-18T03:05:04.122Z,2.80
2022-10-18T03:07:52.437Z,3.10
2022-10-18T03:10:40.791Z,2.97
2022-10-18T03:16:23.800Z,3.33
2022-10-18T03:19:12.151Z,2.80
2022-10-18T03:22:00.491Z,3.13
2022-10-18T03:24:49.038Z,2.93
2022-10-18T03:27:37.411Z,3.00
2022-10-18T03:30:27.153Z,2.93
2022-10-18T03:33:15.525Z,3.00
2022-10-18T03:36:04.035Z,2.90
2022-10-18T03:38:52.396Z,3.20
2022-10-18T03:41:40.776Z,3.20
2022-10-18T03:44:29.294Z,4.90
2022-10-18T03:47:19.024Z,5.20
2022-10-18T03:50:07.881Z,5.13
2022-10-18T03:52:56.208Z,5.30
2022-10-18T03:55:44.559Z,5.10
2022-10-18T04:01:22.319Z,5.27
2022-10-18T04:04:12.087Z,5.40
2022-10-18T04:07:00.435Z,5.33
2022-10-18T04:09:48.765Z,5.67
2022-10-18T04:12:37.091Z,5.80
2022-10-18T04:15:25.469Z,5.27
2022-10-18T04:18:13.853Z,5.43
2022-10-18T04:21:03.562Z,5.27
2022-10-18T04:23:52.151Z,5.47
2022-10-18T04:26:40.471Z,6.00
2022-10-18T04:29:28.807Z,5.07
2022-10-18T04:32:17.132Z,5.70
2022-10-18T04:35:06.322Z,5.70
2022-10-18T04:37:56.047Z,5.40
2022-10-18T04:40:44.442Z,5.37
2022-10-18T04:43:32.827Z,5.57
2022-10-18T04:46:21.182Z,4.97
2022-10-18T04:49:09.582Z,5.27
2022-10-18T04:51:57.957Z,5.03
2022-10-18T04:54:47.664Z,4.60
2022-10-18T04:57:36.107Z,4.43
2022-10-18T05:00:24.490Z,4.63
2022-10-18T05:03:13.427Z,5.17
2022-10-18T05:06:02.822Z,4.50
2022-10-18T05:08:51.715Z,4.77
2022-10-18T05:11:41.395Z,4.43
2022-10-18T05:14:29.742Z,4.57
2022-10-18T05:17:18.235Z,4.53
2022-10-18T05:20:07.638Z,4.40
2022-10-18T05:22:57.005Z,4.23
2022-10-18T05:25:45.393Z,4.33
2022-10-18T05:28:39.983Z,4.37
2022-10-18T05:31:29.079Z,4.70
2022-10-18T05:34:17.496Z,4.57
2022-10-18T05:37:06.697Z,4.27
2022-10-18T05:39:55.051Z,4.30
2022-10-18T05:42:43.452Z,4.20
2022-10-18T05:45:33.236Z,4.47
2022-10-18T05:48:21.596Z,4.07
2022-10-18T05:51:09.954Z,4.00
2022-10-18T05:53:58.778Z,3.97
2022-10-18T05:56:47.098Z,4.40
2022-10-18T05:59:35.466Z,4.43
2022-10-18T06:02:25.206Z,4.10
2022-10-18T06:04:53.293Z,4.03
2022-10-18T06:07:21.521Z,4.50
2022-10-18T06:09:49.622Z,4.13
2022-10-18T06:12:17.657Z,4.50
2022-10-18T06:14:45.696Z,4.47
2022-10-18T06:17:13.751Z,3.93
2022-10-18T06:19:44.290Z,4.37
2022-10-18T06:22:12.550Z,3.93
2022-10-18T06:24:40.606Z,4.17
2022-10-18T06:27:09.494Z,4.43
2022-10-18T06:29:37.808Z,4.13
2022-10-18T06:32:06.306Z,10.83
2022-10-18T06:34:34.612Z,5.23
2022-10-18T06:37:04.038Z,4.03
2022-10-18T06:39:32.248Z,3.90
2022-10-18T06:42:00.326Z,4.07
2022-10-18T06:44:28.376Z,4.33
2022-10-18T06:46:56.420Z,4.90
2022-10-18T06:49:24.603Z,4.23
2022-10-18T06:51:54.494Z,4.27
2022-10-18T06:54:24.085Z,4.20
2022-10-18T06:56:52.275Z,3.90
2022-10-18T06:59:20.515Z,4.07
2022-10-18T07:01:48.647Z,4.10
2022-10-18T07:04:16.800Z,4.87
2022-10-18T07:06:44.884Z,4.50
2022-10-18T07:09:12.954Z,4.40
2022-10-18T07:11:42.402Z,4.10
2022-10-18T07:14:14.026Z,4.33
2022-10-18T07:16:44.304Z,4.20
2022-10-18T07:19:12.344Z,4.80
2022-10-18T07:21:40.414Z,5.20
2022-10-18T07:24:08.436Z,5.03
2022-10-18T07:26:36.691Z,5.10
2022-10-18T07:29:08.934Z,5.30
2022-10-18T07:31:38.381Z,5.17
2022-10-18T07:34:06.892Z,5.13
2022-10-18T07:36:35.531Z,5.23
2022-10-18T07:39:03.797Z,5.47
2022-10-18T07:41:33.509Z,5.60
2022-10-18T07:44:03.005Z,6.10
2022-10-18T07:46:32.450Z,6.10
2022-10-18T07:49:00.563Z,5.40
2022-10-18T07:51:30.810Z,5.63
2022-10-18T07:53:58.831Z,5.30
2022-10-18T07:56:26.934Z,6.10
2022-10-18T07:58:56.706Z,5.67
2022-10-18T08:01:25.309Z,5.43
2022-10-18T08:03:54.960Z,5.40
2022-10-18T08:06:23.540Z,6.13
2022-10-18T08:08:52.080Z,5.70
2022-10-18T08:11:21.951Z,5.70
2022-10-18T08:13:49.992Z,5.80
2022-10-18T08:16:19.927Z,5.50
2022-10-18T08:18:48.071Z,5.60
2022-10-18T08:21:17.855Z,5.83
2022-10-18T08:23:45.957Z,5.63
2022-10-18T08:26:15.768Z,5.97
2022-10-18T08:28:53.491Z,5.60
2022-10-18T08:31:26.566Z,5.60
2022-10-18T08:33:55.978Z,5.80
2022-10-18T08:36:25.599Z,5.90
2022-10-18T08:38:53.614Z,5.87
2022-10-18T08:42:03.405Z,6.20
2022-10-18T08:44:32.595Z,6.00
2022-10-18T08:47:03.743Z,5.90
2022-10-18T08:49:37.119Z,5.23
2022-10-18T08:52:08.391Z,5.80
2022-10-18T08:54:38.386Z,5.93
2022-10-18T08:57:12.038Z,5.87
2022-10-18T08:59:40.839Z,5.83
2022-10-18T09:02:19.789Z,6.20
2022-10-18T09:04:51.627Z,5.40
2022-10-18T09:07:44.994Z,6.07
2022-10-18T09:10:21.003Z,7.03
2022-10-18T09:13:01.487Z,5.77
2022-10-18T09:15:35.187Z,5.97
2022-10-18T09:18:13.711Z,6.40
2022-10-18T09:20:50.747Z,5.73
2022-10-18T09:23:23.080Z,5.87
2022-10-18T09:25:53.977Z,6.70
2022-10-18T09:28:30.554Z,5.67
2022-10-18T09:31:01.471Z,6.60
2022-10-18T09:33:43.187Z,5.93
2022-10-18T09:36:15.067Z,6.40
2022-10-18T09:38:49.120Z,5.63
2022-10-18T09:41:21.065Z,6.13
2022-10-18T09:43:53.766Z,6.67
2022-10-18T09:46:23.024Z,6.50
2022-10-18T09:48:54.063Z,7.23
2022-10-18T09:51:24.265Z,6.77
2022-10-18T09:54:15.298Z,7.20
2022-10-18T09:56:47.145Z,7.20
2022-10-18T09:59:36.998Z,6.60
2022-10-18T10:02:05.301Z,6.80
2022-10-18T10:04:33.483Z,7.20
2022-10-18T10:07:02.441Z,6.93
2022-10-18T10:09:37.193Z,6.23
2022-10-18T10:12:05.822Z,6.87
2022-10-18T10:14:33.947Z,6.57
2022-10-18T10:17:03.892Z,6.70
2022-10-18T10:19:34.332Z,6.40
2022-10-18T10:22:05.300Z,5.83
2022-10-18T10:24:46.238Z,6.20
2022-10-18T10:27:21.059Z,5.90
2022-10-18T10:30:01.407Z,6.33
2022-10-18T10:32:32.897Z,5.90
2022-10-18T10:35:00.930Z,6.10
2022-10-18T10:37:35.689Z,6.27
2022-10-18T10:40:27.678Z,6.80
2022-10-18T10:43:18.368Z,6.90
2022-10-18T10:46:02.850Z,7.20
2022-10-18T10:48:34.274Z,7.33
2022-10-18T10:51:06.127Z,7.23
2022-10-18T10:53:46.957Z,6.97
2022-10-18T10:56:27.901Z,6.57
2022-10-18T10:58:56.803Z,6.63
2022-10-18T11:01:31.297Z,7.93
2022-10-18T11:04:01.977Z,7.27
2022-10-18T11:06:49.622Z,7.47
2022-10-18T11:09:27.856Z,9.40
2022-10-18T11:12:04.152Z,8.53
2022-10-18T11:14:36.640Z,7.77
2022-10-18T11:17:12.959Z,13.37
2022-10-18T11:19:49.538Z,8.93
2022-10-18T11:22:19.889Z,8.67
2022-10-18T11:24:48.020Z,9.33
2022-10-18T11:27:20.912Z,9.73
2022-10-18T11:30:15.184Z,9.43
2022-10-18T11:32:46.669Z,8.90
2022-10-18T11:35:28.159Z,9.27
2022-10-18T11:38:07.784Z,9.57
2022-10-18T11:41:07.569Z,9.90
2022-10-18T11:44:01.051Z,9.17
2022-10-18T11:46:43.418Z,9.47
2022-10-18T11:49:20.356Z,9.20
2022-10-18T11:52:14.101Z,9.30
2022-10-18T11:55:06.482Z,9.33
2022-10-18T11:57:44.318Z,8.33
2022-10-18T12:00:30.381Z,9.07
2022-10-18T12:03:16.569Z,9.47
2022-10-18T12:05:45.742Z,9.00
2022-10-18T12:08:15.874Z,9.00
2022-10-18T12:11:04.019Z,8.50
2022-10-18T12:13:37.745Z,9.07
2022-10-18T12:16:08.427Z,8.63
2022-10-18T12:18:37.330Z,8.83
2022-10-18T12:21:05.650Z,9.47
2022-10-18T12:23:40.126Z,8.73
2022-10-18T12:26:09.075Z,9.07
2022-10-18T12:28:46.002Z,9.47
2022-10-18T12:31:21.667Z,8.57
2022-10-18T12:33:51.670Z,8.93
2022-10-18T12:36:37.920Z,9.33
2022-10-18T12:39:08.051Z,9.97
2022-10-18T12:41:36.214Z,9.67
2022-10-18T12:44:06.305Z,9.53
2022-10-18T12:46:50.513Z,9.63
2022-10-18T12:49:21.341Z,10.27
2022-10-18T12:51:53.957Z,9.90
2022-10-18T12:54:24.710Z,9.10
2022-10-18T12:56:52.799Z,10.03
2022-10-18T12:59:53.838Z,10.00
2022-10-18T13:02:32.854Z,9.87
2022-10-18T13:05:02.184Z,10.87
2022-10-18T13:07:43.134Z,10.07
2022-10-18T13:10:41.651Z,9.13
2022-10-18T13:13:40.333Z,9.30
2022-10-18T13:16:25.130Z,10.07
2022-10-18T13:18:57.010Z,9.93
2022-10-18T13:21:33.518Z,9.53
2022-10-18T13:24:16.951Z,8.90
2022-10-18T13:26:59.134Z,8.93
2022-10-18T13:29:52.020Z,8.60
2022-10-18T13:32:26.048Z,9.43
2022-10-18T13:34:55.455Z,8.93
2022-10-18T13:37:25.229Z,9.80
2022-10-18T13:39:54.392Z,9.60
2022-10-18T13:42:33.875Z,8.30
2022-10-18T13:45:44.191Z,9.67
2022-10-18T13:48:48.039Z,9.40
2022-10-18T13:51:53.870Z,8.63
2022-10-18T13:54:46.555Z,8.73
2022-10-18T13:57:26.647Z,8.67
2022-10-18T14:00:18.292Z,8.93
2022-10-18T14:03:55.719Z,7.70
2022-10-18T14:06:22.392Z,8.97
2022-10-18T14:08:56.702Z,8.93
2022-10-18T14:11:30.842Z,8.50
2022-10-18T14:14:05.338Z,14.60
2022-10-18T14:16:37.643Z,10.47
2022-10-18T14:19:17.429Z,7.90
2022-10-18T14:21:53.242Z,8.10
2022-10-18T14:24:24.614Z,8.47
2022-10-18T14:27:12.734Z,14.70
2022-10-18T14:29:41.132Z,11.67
2022-10-18T14:32:10.459Z,10.60
2022-10-18T14:34:38.937Z,9.40
2022-10-18T14:37:07.446Z,9.20
2022-10-18T14:39:39.384Z,9.30
2022-10-18T14:42:21.069Z,8.93
2022-10-18T14:44:54.229Z,8.20
2022-10-18T14:47:28.497Z,7.97
2022-10-18T14:49:57.680Z,9.40
2022-10-18T14:52:41.537Z,9.30
2022-10-18T14:55:16.296Z,8.37
2022-10-18T14:57:44.378Z,7.17
2022-10-18T15:00:21.133Z,7.33
2022-10-18T15:03:00.714Z,7.63
2022-10-18T15:05:29.264Z,7.03
2022-10-18T15:07:59.526Z,7.10
2022-10-18T15:10:31.401Z,6.93
2022-10-18T15:13:09.777Z,7.60
2022-10-18T15:15:38.559Z,7.33
2022-10-18T15:18:06.641Z,6.77
2022-10-18T15:23:24.063Z,7.13
2022-10-18T15:25:52.346Z,7.50
2022-10-18T15:28:28.905Z,7.57
2022-10-18T15:30:58.854Z,6.83
2022-10-18T15:33:28.034Z,6.70
2022-10-18T15:35:56.115Z,8.23
2022-10-18T15:38:28.516Z,6.90
2022-10-18T15:40:56.610Z,6.50
2022-10-18T15:43:47.232Z,6.80
2022-10-18T15:46:30.912Z,7.17
2022-10-18T15:49:15.071Z,7.10
2022-10-18T15:51:49.198Z,7.13
2022-10-18T15:54:20.246Z,6.77
2022-10-18T15:56:48.278Z,7.33
2022-10-18T15:59:23.686Z,7.57
2022-10-18T16:01:51.843Z,9.13
2022-10-18T16:04:22.925Z,8.83
2022-10-18T16:06:51.111Z,8.23
2022-10-18T16:09:21.374Z,10.00
2022-10-18T16:11:56.428Z,16.67
2022-10-18T16:14:25.785Z,12.07
2022-10-18T16:16:55.492Z,8.63
2022-10-18T16:19:24.002Z,6.60
2022-10-18T16:21:52.557Z,6.23
2022-10-18T16:24:22.896Z,6.23
2022-10-18T16:26:51.153Z,6.37
2022-10-18T16:29:21.736Z,5.87
2022-10-18T16:31:50.778Z,6.87
2022-10-18T16:34:18.899Z,8.17
2022-10-18T16:36:46.947Z,7.23
2022-10-18T16:39:16.567Z,8.03
2022-10-18T16:41:46.033Z,6.63
2022-10-18T16:44:14.221Z,6.60
2022-10-18T16:46:42.315Z,7.20
2022-10-18T16:51:51.242Z,5.53
2022-10-18T16:54:19.303Z,5.50
2022-10-18T16:56:50.010Z,4.67
2022-10-18T16:59:22.759Z,6.93
2022-10-18T17:01:50.935Z,7.57
2022-10-18T17:04:19.056Z,5.70
2022-10-18T17:06:47.540Z,4.60
2022-10-18T17:09:15.670Z,4.37
2022-10-18T17:11:43.859Z,5.00
2022-10-18T17:14:13.228Z,4.83
2022-10-18T17:16:41.326Z,4.50
2022-10-18T17:19:11.643Z,3.90
2022-10-18T17:21:39.720Z,3.77
2022-10-18T17:24:07.835Z,5.70
2022-10-18T17:26:35.934Z,5.90
2022-10-18T17:29:05.694Z,8.40
2022-10-18T17:31:35.633Z,5.10
2022-10-18T17:34:03.767Z,4.87
2022-10-18T17:36:32.261Z,4.37
2022-10-18T17:39:00.315Z,4.10
2022-10-18T17:41:28.330Z,3.90
2022-10-18T17:43:56.420Z,4.33
2022-10-18T17:46:24.528Z,4.90
2022-10-18T17:48:54.548Z,4.70
2022-10-18T17:51:22.690Z,4.70
2022-10-18T17:53:50.790Z,4.80
2022-10-18T17:56:18.831Z,4.27
2022-10-18T17:58:46.957Z,4.73
2022-10-18T18:01:18.701Z,5.73
2022-10-18T18:03:47.614Z,5.57
2022-10-18T18:06:21.597Z,4.77
2022-10-18T18:08:49.964Z,4.60
2022-10-18T18:11:18.345Z,4.90
2022-10-18T18:13:46.460Z,4.33
2022-10-18T18:16:15.734Z,4.27
2022-10-18T18:18:43.877Z,4.30
2022-10-18T18:21:12.149Z,4.03
2022-10-18T18:23:41.501Z,4.37
2022-10-18T18:26:09.718Z,4.43
2022-10-18T18:28:38.078Z,5.03
2022-10-18T18:31:07.798Z,4.40
2022-10-18T18:33:36.034Z,5.07
2022-10-18T18:36:05.114Z,4.70
2022-10-18T18:38:33.479Z,5.00
2022-10-18T18:41:07.213Z,5.63
2022-10-18T18:43:35.289Z,5.73
2022-10-18T18:46:03.384Z,6.47
2022-10-18T18:48:32.756Z,7.07
2022-10-18T18:51:00.925Z,8.30
2022-10-18T18:53:29.611Z,6.87
2022-10-18T18:56:03.614Z,7.57
2022-10-18T18:58:33.180Z,7.67
2022-10-18T19:01:06.041Z,7.60
2022-10-18T19:03:34.176Z,7.77
2022-10-18T19:06:06.373Z,7.73
2022-10-18T19:08:36.036Z,7.27
2022-10-18T19:11:08.043Z,6.70
2022-10-18T19:13:38.634Z,6.33
2022-10-18T19:16:25.710Z,5.37
2022-10-18T19:18:55.994Z,5.37
2022-10-18T19:21:24.574Z,4.30
2022-10-18T19:23:52.703Z,5.03
2022-10-18T19:26:27.927Z,4.23
2022-10-18T19:29:01.336Z,4.00
2022-10-18T19:31:29.555Z,3.60
2022-10-18T19:33:59.640Z,3.83
2022-10-18T19:36:29.059Z,3.83
2022-10-18T19:38:57.174Z,3.70
2022-10-18T19:43:59.642Z,3.43
2022-10-18T19:46:27.784Z,3.10
2022-10-18T19:48:55.919Z,3.83
2022-10-18T19:51:27.725Z,3.90
2022-10-18T19:53:56.710Z,2.40
2022-10-18T19:56:25.556Z,2.20
2022-10-18T19:58:53.769Z,1.93
2022-10-18T20:01:23.233Z,1.80
2022-10-18T20:04:10.745Z,1.93
2022-10-18T20:06:59.076Z,1.90
2022-10-18T20:09:47.978Z,1.77
2022-10-18T20:12:36.977Z,2.23
2022-10-18T20:15:25.302Z,1.60
2022-10-18T20:18:14.983Z,1.90
2022-10-18T20:21:05.676Z,1.90
2022-10-18T20:23:54.444Z,2.40
2022-10-18T20:26:43.541Z,2.87
2022-10-18T20:29:33.227Z,2.60
2022-10-18T20:32:21.602Z,2.67
2022-10-18T20:35:11.529Z,2.17
2022-10-18T20:37:59.954Z,2.17
2022-10-18T20:40:48.331Z,1.80
2022-10-18T20:43:36.869Z,1.60
2022-10-18T20:46:25.262Z,1.90
2022-10-18T20:49:15.480Z,2.00
2022-10-18T20:52:05.200Z,1.90
2022-10-18T20:54:53.545Z,1.80
2022-10-18T20:57:42.158Z,1.50
2022-10-18T21:00:31.572Z,1.60
2022-10-18T21:03:19.945Z,1.30
2022-10-18T21:06:11.944Z,1.63
2022-10-18T21:09:02.546Z,1.40
2022-10-18T21:11:53.721Z,1.30
2022-10-18T21:14:42.141Z,1.50
2022-10-18T21:17:30.461Z,1.63
2022-10-18T21:20:19.128Z,1.83
2022-10-18T21:23:07.562Z,1.80
2022-10-18T21:25:57.282Z,1.80
2022-10-18T21:28:45.908Z,2.30
2022-10-18T21:31:35.796Z,2.20
2022-10-18T21:34:24.120Z,2.27
2022-10-18T21:37:12.501Z,2.10
2022-10-18T21:40:00.811Z,2.00
2022-10-18T21:42:50.513Z,2.13
2022-10-18T21:45:38.892Z,2.20
2022-10-18T21:48:27.348Z,2.30
2022-10-18T21:51:18.367Z,2.00
2022-10-18T21:54:08.713Z,1.80
2022-10-18T21:56:57.099Z,2.30
2022-10-18T21:59:46.905Z,1.60
2022-10-18T22:02:35.440Z,1.90
2022-10-18T22:05:23.913Z,1.50
2022-10-18T22:08:12.221Z,2.13
2022-10-18T22:11:00.708Z,1.70
2022-10-18T22:13:49.091Z,2.27
2022-10-18T22:16:38.754Z,1.73
2022-10-18T22:19:27.081Z,1.63
2022-10-18T22:22:15.460Z,1.90
2022-10-18T22:25:03.770Z,2.20
2022-10-18T22:27:52.094Z,1.77
2022-10-18T22:30:40.640Z,1.70
2022-10-18T22:33:30.400Z,1.90
2022-10-18T22:36:18.780Z,2.20
2022-10-18T22:39:07.235Z,2.37
2022-10-18T22:41:56.526Z,2.30
2022-10-18T22:44:44.844Z,1.90
2022-10-18T22:47:33.971Z,2.60
2022-10-18T22:50:23.913Z,2.40
2022-10-18T22:53:12.305Z,2.17
2022-10-18T22:56:00.630Z,2.30
2022-10-18T22:58:49.137Z,2.30
2022-10-18T23:01:37.431Z,2.40
2022-10-18T23:04:25.797Z,2.77
2022-10-18T23:07:15.483Z,2.90
2022-10-18T23:10:04.015Z,2.40
2022-10-18T23:12:52.287Z,2.47
2022-10-18T23:15:40.625Z,2.83
2022-10-18T23:18:29.064Z,2.70
2022-10-18T23:21:17.470Z,3.10
2022-10-18T23:24:07.215Z,2.53
2022-10-18T23:26:55.586Z,3.67
2022-10-18T23:29:43.937Z,3.00
2022-10-18T23:32:32.484Z,2.70
2022-10-18T23:35:21.091Z,2.50
2022-10-18T23:38:09.434Z,2.67
2022-10-18T23:40:59.186Z,3.30
2022-10-18T23:43:47.622Z,2.97
2022-10-18T23:46:36.003Z,2.80
2022-10-18T23:49:24.344Z,2.50
2022-10-18T23:52:12.702Z,2.97
2022-10-18T23:55:01.014Z,3.00
2022-10-18T23:57:50.730Z,3.03
